sensor_id;sensor_type;location;lat;lon;timestamp;P1;durP1;ratioP1;P2;durP2;ratioP2
17714;SDS011;8977;50.902;4.314;2022-09-28T00:00:37;3.93;;;2.50;;
17714;SDS011;8977;50.902;4.314;2022-09-28T00:03:07;4.27;;;2.67;;
17714;SDS011;8977;50.902;4.314;2022-09-28T00:05:34;3.87;;;2.30;;
17714;SDS011;8977;50.902;4.314;2022-09-28T00:08:01;3.97;;;2.13;;
17714;SDS011;8977;50.902;4.314;2022-09-28T00:10:28;3.40;;;2.23;;
17714;SDS011;8977;50.902;4.314;2022-09-28T00:12:55;3.40;;;2.30;;
17714;SDS011;8977;50.902;4.314;2022-09-28T00:15:24;3.27;;;2.50;;
17714;SDS011;8977;50.902;4.314;2022-09-28T00:17:51;4.57;;;2.43;;
17714;SDS011;8977;50.902;4.314;2022-09-28T00:20:19;3.53;;;3.00;;
17714;SDS011;8977;50.902;4.314;2022-09-28T00:22:46;3.33;;;2.63;;
17714;SDS011;8977;50.902;4.314;2022-09-28T00:25:13;5.27;;;3.63;;
17714;SDS011;8977;50.902;4.314;2022-09-28T00:27:41;4.10;;;3.03;;
17714;SDS011;8977;50.902;4.314;2022-09-28T00:30:08;4.17;;;3.20;;
17714;SDS011;8977;50.902;4.314;2022-09-28T00:32:35;3.83;;;3.00;;
17714;SDS011;8977;50.902;4.314;2022-09-28T00:35:02;3.80;;;3.40;;
17714;SDS011;8977;50.902;4.314;2022-09-28T00:37:30;4.97;;;3.80;;
17714;SDS011;8977;50.902;4.314;2022-09-28T00:39:57;3.70;;;3.27;;
17714;SDS011;8977;50.902;4.314;2022-09-28T00:42:25;4.37;;;3.50;;
17714;SDS011;8977;50.902;4.314;2022-09-28T00:44:52;5.43;;;3.80;;
17714;SDS011;8977;50.902;4.314;2022-09-28T00:47:25;4.40;;;3.30;;
17714;SDS011;8977;50.902;4.314;2022-09-28T00:50:02;4.50;;;3.53;;
17714;SDS011;8977;50.902;4.314;2022-09-28T00:52:36;4.27;;;3.30;;
17714;SDS011;8977;50.902;4.314;2022-09-28T00:55:07;3.63;;;3.20;;
17714;SDS011;8977;50.902;4.314;2022-09-28T00:57:36;5.93;;;3.70;;
17714;SDS011;8977;50.902;4.314;2022-09-28T01:00:06;3.43;;;3.13;;
17714;SDS011;8977;50.902;4.314;2022-09-28T01:02:34;3.97;;;3.57;;
17714;SDS011;8977;50.902;4.314;2022-09-28T01:05:01;4.20;;;3.07;;
17714;SDS011;8977;50.902;4.314;2022-09-28T01:07:31;3.47;;;2.70;;
17714;SDS011;8977;50.902;4.314;2022-09-28T01:10:01;4.00;;;2.80;;
17714;SDS011;8977;50.902;4.314;2022-09-28T01:12:28;3.50;;;2.90;;
17714;SDS011;8977;50.902;4.314;2022-09-28T01:14:55;5.67;;;3.17;;
17714;SDS011;8977;50.902;4.314;2022-09-28T01:17:25;4.17;;;2.67;;
17714;SDS011;8977;50.902;4.314;2022-09-28T01:20:05;3.33;;;3.00;;
17714;SDS011;8977;50.902;4.314;2022-09-28T01:25:51;2.87;;;2.67;;
17714;SDS011;8977;50.902;4.314;2022-09-28T01:28:22;4.43;;;2.10;;
17714;SDS011;8977;50.902;4.314;2022-09-28T01:30:56;3.60;;;2.33;;
17714;SDS011;8977;50.902;4.314;2022-09-28T01:33:30;3.57;;;2.13;;
17714;SDS011;8977;50.902;4.314;2022-09-28T01:36:01;3.30;;;2.10;;
17714;SDS011;8977;50.902;4.314;2022-09-28T01:38:36;3.33;;;2.23;;
17714;SDS011;8977;50.902;4.314;2022-09-28T01:41:06;3.47;;;2.30;;
17714;SDS011;8977;50.902;4.314;2022-09-28T01:43:36;2.30;;;2.03;;
17714;SDS011;8977;50.902;4.314;2022-09-28T01:46:10;3.73;;;2.20;;
17714;SDS011;8977;50.902;4.314;2022-09-28T01:48:40;2.83;;;1.90;;
17714;SDS011;8977;50.902;4.314;2022-09-28T01:51:14;2.07;;;1.77;;
17714;SDS011;8977;50.902;4.314;2022-09-28T01:53:45;3.33;;;1.90;;
17714;SDS011;8977;50.902;4.314;2022-09-28T01:56:17;2.13;;;1.80;;
17714;SDS011;8977;50.902;4.314;2022-09-28T01:58:50;3.37;;;2.13;;
17714;SDS011;8977;50.902;4.314;2022-09-28T02:01:23;2.63;;;1.87;;
17714;SDS011;8977;50.902;4.314;2022-09-28T02:03:55;5.20;;;1.90;;
17714;SDS011;8977;50.902;4.314;2022-09-28T02:06:30;3.70;;;2.03;;
17714;SDS011;8977;50.902;4.314;2022-09-28T02:09:04;2.73;;;1.97;;
17714;SDS011;8977;50.902;4.314;2022-09-28T02:11:35;3.03;;;1.90;;
17714;SDS011;8977;50.902;4.314;2022-09-28T02:14:09;4.13;;;1.93;;
17714;SDS011;8977;50.902;4.314;2022-09-28T02:16:41;3.73;;;1.87;;
17714;SDS011;8977;50.902;4.314;2022-09-28T02:19:10;2.47;;;1.90;;
17714;SDS011;8977;50.902;4.314;2022-09-28T02:21:40;5.20;;;2.20;;
17714;SDS011;8977;50.902;4.314;2022-09-28T02:24:13;4.33;;;1.83;;
17714;SDS011;8977;50.902;4.314;2022-09-28T02:26:42;3.87;;;2.10;;
17714;SDS011;8977;50.902;4.314;2022-09-28T02:29:14;2.90;;;1.97;;
17714;SDS011;8977;50.902;4.314;2022-09-28T02:31:41;1.90;;;1.80;;
17714;SDS011;8977;50.902;4.314;2022-09-28T02:34:08;5.13;;;2.17;;
17714;SDS011;8977;50.902;4.314;2022-09-28T02:36:35;3.47;;;2.20;;
17714;SDS011;8977;50.902;4.314;2022-09-28T02:39:02;3.63;;;2.10;;
17714;SDS011;8977;50.902;4.314;2022-09-28T02:41:34;4.47;;;2.37;;
17714;SDS011;8977;50.902;4.314;2022-09-28T02:44:14;4.03;;;1.90;;
17714;SDS011;8977;50.902;4.314;2022-09-28T02:46:55;2.87;;;2.00;;
17714;SDS011;8977;50.902;4.314;2022-09-28T02:49:26;4.47;;;2.30;;
17714;SDS011;8977;50.902;4.314;2022-09-28T02:52:07;3.00;;;2.07;;
17714;SDS011;8977;50.902;4.314;2022-09-28T02:54:52;1.80;;;1.70;;
17714;SDS011;8977;50.902;4.314;2022-09-28T02:57:38;4.03;;;2.13;;
17714;SDS011;8977;50.902;4.314;2022-09-28T03:00:15;5.77;;;2.03;;
17714;SDS011;8977;50.902;4.314;2022-09-28T03:02:55;2.77;;;1.90;;
17714;SDS011;8977;50.902;4.314;2022-09-28T03:05:29;3.00;;;2.30;;
17714;SDS011;8977;50.902;4.314;2022-09-28T03:08:02;2.97;;;1.53;;
17714;SDS011;8977;50.902;4.314;2022-09-28T03:10:37;4.37;;;1.70;;
17714;SDS011;8977;50.902;4.314;2022-09-28T03:13:08;1.87;;;1.50;;
17714;SDS011;8977;50.902;4.314;2022-09-28T03:15:37;1.60;;;1.50;;
17714;SDS011;8977;50.902;4.314;2022-09-28T03:18:06;1.83;;;1.70;;
17714;SDS011;8977;50.902;4.314;2022-09-28T03:20:33;3.73;;;2.00;;
17714;SDS011;8977;50.902;4.314;2022-09-28T03:23:00;2.87;;;1.67;;
17714;SDS011;8977;50.902;4.314;2022-09-28T03:25:27;3.03;;;1.60;;
17714;SDS011;8977;50.902;4.314;2022-09-28T03:27:54;2.43;;;1.77;;
17714;SDS011;8977;50.902;4.314;2022-09-28T03:30:20;1.70;;;1.40;;
17714;SDS011;8977;50.902;4.314;2022-09-28T03:32:56;1.70;;;1.50;;
17714;SDS011;8977;50.902;4.314;2022-09-28T03:35:24;3.60;;;1.80;;
17714;SDS011;8977;50.902;4.314;2022-09-28T03:37:52;3.23;;;1.60;;
17714;SDS011;8977;50.902;4.314;2022-09-28T03:40:20;2.33;;;1.60;;
17714;SDS011;8977;50.902;4.314;2022-09-28T03:42:46;2.30;;;1.83;;
17714;SDS011;8977;50.902;4.314;2022-09-28T03:45:13;2.43;;;1.40;;
17714;SDS011;8977;50.902;4.314;2022-09-28T03:47:43;1.50;;;1.30;;
17714;SDS011;8977;50.902;4.314;2022-09-28T03:50:12;2.17;;;1.50;;
17714;SDS011;8977;50.902;4.314;2022-09-28T03:52:39;2.33;;;1.50;;
17714;SDS011;8977;50.902;4.314;2022-09-28T03:55:07;1.87;;;1.60;;
17714;SDS011;8977;50.902;4.314;2022-09-28T03:57:35;2.10;;;1.47;;
17714;SDS011;8977;50.902;4.314;2022-09-28T04:00:02;1.93;;;1.40;;
17714;SDS011;8977;50.902;4.314;2022-09-28T04:02:30;4.03;;;1.63;;
17714;SDS011;8977;50.902;4.314;2022-09-28T04:04:58;2.27;;;1.53;;
17714;SDS011;8977;50.902;4.314;2022-09-28T04:07:26;2.73;;;1.60;;
17714;SDS011;8977;50.902;4.314;2022-09-28T04:09:53;1.77;;;1.60;;
17714;SDS011;8977;50.902;4.314;2022-09-28T04:12:20;2.80;;;1.63;;
17714;SDS011;8977;50.902;4.314;2022-09-28T04:14:47;4.07;;;1.80;;
17714;SDS011;8977;50.902;4.314;2022-09-28T04:17:14;3.57;;;1.63;;
17714;SDS011;8977;50.902;4.314;2022-09-28T04:19:40;2.77;;;1.40;;
17714;SDS011;8977;50.902;4.314;2022-09-28T04:22:07;3.37;;;1.40;;
17714;SDS011;8977;50.902;4.314;2022-09-28T04:24:36;1.80;;;1.70;;
17714;SDS011;8977;50.902;4.314;2022-09-28T04:27:03;3.03;;;1.80;;
17714;SDS011;8977;50.902;4.314;2022-09-28T04:29:47;2.27;;;1.90;;
17714;SDS011;8977;50.902;4.314;2022-09-28T04:32:14;3.20;;;1.80;;
17714;SDS011;8977;50.902;4.314;2022-09-28T04:34:41;5.47;;;2.20;;
17714;SDS011;8977;50.902;4.314;2022-09-28T04:37:08;3.90;;;1.80;;
17714;SDS011;8977;50.902;4.314;2022-09-28T04:39:36;2.53;;;1.80;;
17714;SDS011;8977;50.902;4.314;2022-09-28T04:42:04;2.23;;;1.73;;
17714;SDS011;8977;50.902;4.314;2022-09-28T04:44:31;2.33;;;1.87;;
17714;SDS011;8977;50.902;4.314;2022-09-28T04:46:58;2.00;;;1.80;;
17714;SDS011;8977;50.902;4.314;2022-09-28T04:49:25;2.03;;;1.50;;
17714;SDS011;8977;50.902;4.314;2022-09-28T04:51:51;5.30;;;1.67;;
17714;SDS011;8977;50.902;4.314;2022-09-28T04:54:18;2.37;;;1.83;;
17714;SDS011;8977;50.902;4.314;2022-09-28T04:56:46;2.73;;;1.73;;
17714;SDS011;8977;50.902;4.314;2022-09-28T04:59:13;3.13;;;1.83;;
17714;SDS011;8977;50.902;4.314;2022-09-28T05:01:40;3.90;;;1.73;;
17714;SDS011;8977;50.902;4.314;2022-09-28T05:04:07;2.90;;;1.90;;
17714;SDS011;8977;50.902;4.314;2022-09-28T05:06:34;2.93;;;1.73;;
17714;SDS011;8977;50.902;4.314;2022-09-28T05:09:01;3.27;;;1.90;;
17714;SDS011;8977;50.902;4.314;2022-09-28T05:11:28;4.73;;;1.93;;
17714;SDS011;8977;50.902;4.314;2022-09-28T05:13:56;2.70;;;1.90;;
17714;SDS011;8977;50.902;4.314;2022-09-28T05:16:23;3.00;;;1.87;;
17714;SDS011;8977;50.902;4.314;2022-09-28T05:18:53;4.80;;;2.20;;
17714;SDS011;8977;50.902;4.314;2022-09-28T05:21:20;2.87;;;1.80;;
17714;SDS011;8977;50.902;4.314;2022-09-28T05:23:49;3.17;;;2.07;;
17714;SDS011;8977;50.902;4.314;2022-09-28T05:26:16;3.17;;;2.37;;
17714;SDS011;8977;50.902;4.314;2022-09-28T05:28:44;2.77;;;2.13;;
17714;SDS011;8977;50.902;4.314;2022-09-28T05:31:12;2.60;;;2.37;;
17714;SDS011;8977;50.902;4.314;2022-09-28T05:33:39;3.10;;;2.17;;
17714;SDS011;8977;50.902;4.314;2022-09-28T05:36:07;2.83;;;2.30;;
17714;SDS011;8977;50.902;4.314;2022-09-28T05:38:34;2.60;;;2.27;;
17714;SDS011;8977;50.902;4.314;2022-09-28T05:41:01;3.10;;;2.60;;
17714;SDS011;8977;50.902;4.314;2022-09-28T05:43:29;4.00;;;2.83;;
17714;SDS011;8977;50.902;4.314;2022-09-28T05:45:57;4.60;;;2.77;;
17714;SDS011;8977;50.902;4.314;2022-09-28T05:48:26;3.10;;;2.60;;
17714;SDS011;8977;50.902;4.314;2022-09-28T05:50:52;3.43;;;2.43;;
17714;SDS011;8977;50.902;4.314;2022-09-28T05:53:19;4.33;;;2.90;;
17714;SDS011;8977;50.902;4.314;2022-09-28T05:55:46;3.97;;;3.10;;
17714;SDS011;8977;50.902;4.314;2022-09-28T05:58:13;4.57;;;3.47;;
17714;SDS011;8977;50.902;4.314;2022-09-28T06:00:41;4.47;;;3.13;;
17714;SDS011;8977;50.902;4.314;2022-09-28T06:03:09;6.20;;;3.47;;
17714;SDS011;8977;50.902;4.314;2022-09-28T06:05:39;4.90;;;3.97;;
17714;SDS011;8977;50.902;4.314;2022-09-28T06:08:06;4.40;;;3.90;;
17714;SDS011;8977;50.902;4.314;2022-09-28T06:10:35;7.60;;;4.57;;
17714;SDS011;8977;50.902;4.314;2022-09-28T06:13:03;6.90;;;4.60;;
17714;SDS011;8977;50.902;4.314;2022-09-28T06:15:31;5.50;;;4.13;;
17714;SDS011;8977;50.902;4.314;2022-09-28T06:17:58;6.37;;;4.73;;
17714;SDS011;8977;50.902;4.314;2022-09-28T06:20:26;6.53;;;4.70;;
17714;SDS011;8977;50.902;4.314;2022-09-28T06:22:56;7.50;;;4.80;;
17714;SDS011;8977;50.902;4.314;2022-09-28T06:25:23;6.90;;;4.77;;
17714;SDS011;8977;50.902;4.314;2022-09-28T06:27:55;6.73;;;5.00;;
17714;SDS011;8977;50.902;4.314;2022-09-28T06:30:23;6.43;;;4.93;;
17714;SDS011;8977;50.902;4.314;2022-09-28T06:32:51;5.70;;;4.80;;
17714;SDS011;8977;50.902;4.314;2022-09-28T06:35:18;6.87;;;5.27;;
17714;SDS011;8977;50.902;4.314;2022-09-28T06:37:45;7.33;;;4.93;;
17714;SDS011;8977;50.902;4.314;2022-09-28T06:40:14;6.67;;;5.60;;
17714;SDS011;8977;50.902;4.314;2022-09-28T06:42:41;5.33;;;4.87;;
17714;SDS011;8977;50.902;4.314;2022-09-28T06:45:08;6.20;;;5.23;;
17714;SDS011;8977;50.902;4.314;2022-09-28T06:47:35;7.07;;;5.10;;
17714;SDS011;8977;50.902;4.314;2022-09-28T06:50:02;7.03;;;4.93;;
17714;SDS011;8977;50.902;4.314;2022-09-28T06:52:32;8.47;;;5.60;;
17714;SDS011;8977;50.902;4.314;2022-09-28T06:54:58;8.03;;;5.40;;
17714;SDS011;8977;50.902;4.314;2022-09-28T06:57:27;7.10;;;5.37;;
17714;SDS011;8977;50.902;4.314;2022-09-28T06:59:53;11.40;;;6.03;;
17714;SDS011;8977;50.902;4.314;2022-09-28T07:02:20;8.27;;;5.90;;
17714;SDS011;8977;50.902;4.314;2022-09-28T07:04:47;6.17;;;5.57;;
17714;SDS011;8977;50.902;4.314;2022-09-28T07:07:14;8.57;;;6.50;;
17714;SDS011;8977;50.902;4.314;2022-09-28T07:09:41;11.53;;;6.23;;
17714;SDS011;8977;50.902;4.314;2022-09-28T07:12:08;13.40;;;9.23;;
17714;SDS011;8977;50.902;4.314;2022-09-28T07:14:38;7.40;;;5.77;;
17714;SDS011;8977;50.902;4.314;2022-09-28T07:17:05;9.17;;;5.70;;
17714;SDS011;8977;50.902;4.314;2022-09-28T07:19:32;11.37;;;7.47;;
17714;SDS011;8977;50.902;4.314;2022-09-28T07:22:00;9.03;;;7.20;;
17714;SDS011;8977;50.902;4.314;2022-09-28T07:24:27;6.87;;;5.60;;
17714;SDS011;8977;50.902;4.314;2022-09-28T07:26:55;11.30;;;7.77;;
17714;SDS011;8977;50.902;4.314;2022-09-28T07:29:21;13.37;;;8.00;;
17714;SDS011;8977;50.902;4.314;2022-09-28T07:31:50;12.20;;;6.07;;
17714;SDS011;8977;50.902;4.314;2022-09-28T07:34:18;9.53;;;6.90;;
17714;SDS011;8977;50.902;4.314;2022-09-28T07:36:47;11.00;;;7.40;;
17714;SDS011;8977;50.902;4.314;2022-09-28T07:39:14;14.83;;;9.03;;
17714;SDS011;8977;50.902;4.314;2022-09-28T07:41:41;15.97;;;11.00;;
17714;SDS011;8977;50.902;4.314;2022-09-28T07:44:08;13.43;;;9.53;;
17714;SDS011;8977;50.902;4.314;2022-09-28T07:46:35;10.77;;;6.10;;
17714;SDS011;8977;50.902;4.314;2022-09-28T07:49:03;11.60;;;7.90;;
17714;SDS011;8977;50.902;4.314;2022-09-28T07:51:30;18.83;;;13.70;;
17714;SDS011;8977;50.902;4.314;2022-09-28T07:53:58;12.83;;;8.33;;
17714;SDS011;8977;50.902;4.314;2022-09-28T07:56:24;15.57;;;10.90;;
17714;SDS011;8977;50.902;4.314;2022-09-28T07:58:52;10.77;;;5.80;;
17714;SDS011;8977;50.902;4.314;2022-09-28T08:01:18;7.47;;;4.97;;
17714;SDS011;8977;50.902;4.314;2022-09-28T08:03:45;8.87;;;6.17;;
17714;SDS011;8977;50.902;4.314;2022-09-28T08:06:15;9.43;;;5.17;;
17714;SDS011;8977;50.902;4.314;2022-09-28T08:08:42;7.63;;;5.80;;
17714;SDS011;8977;50.902;4.314;2022-09-28T08:11:09;8.73;;;5.17;;
17714;SDS011;8977;50.902;4.314;2022-09-28T08:13:37;9.27;;;4.63;;
17714;SDS011;8977;50.902;4.314;2022-09-28T08:16:04;9.17;;;4.70;;
17714;SDS011;8977;50.902;4.314;2022-09-28T08:18:32;15.10;;;6.17;;
17714;SDS011;8977;50.902;4.314;2022-09-28T08:20:59;6.97;;;4.67;;
17714;SDS011;8977;50.902;4.314;2022-09-28T08:23:46;6.60;;;4.43;;
17714;SDS011;8977;50.902;4.314;2022-09-28T08:26:13;7.47;;;5.33;;
17714;SDS011;8977;50.902;4.314;2022-09-28T08:28:40;7.03;;;4.40;;
17714;SDS011;8977;50.902;4.314;2022-09-28T08:31:07;8.23;;;4.43;;
17714;SDS011;8977;50.902;4.314;2022-09-28T08:33:34;8.00;;;4.97;;
17714;SDS011;8977;50.902;4.314;2022-09-28T08:36:01;8.43;;;4.23;;
17714;SDS011;8977;50.902;4.314;2022-09-28T08:38:30;5.53;;;4.23;;
17714;SDS011;8977;50.902;4.314;2022-09-28T08:41:01;8.27;;;4.50;;
17714;SDS011;8977;50.902;4.314;2022-09-28T08:43:46;12.13;;;5.50;;
17714;SDS011;8977;50.902;4.314;2022-09-28T08:46:23;10.80;;;4.40;;
17714;SDS011;8977;50.902;4.314;2022-09-28T08:48:57;26.53;;;6.47;;
17714;SDS011;8977;50.902;4.314;2022-09-28T08:51:29;9.87;;;4.23;;
17714;SDS011;8977;50.902;4.314;2022-09-28T08:54:01;6.90;;;4.17;;
17714;SDS011;8977;50.902;4.314;2022-09-28T08:56:36;10.03;;;5.27;;
17714;SDS011;8977;50.902;4.314;2022-09-28T08:59:08;8.13;;;5.50;;
17714;SDS011;8977;50.902;4.314;2022-09-28T09:01:40;7.90;;;3.70;;
17714;SDS011;8977;50.902;4.314;2022-09-28T09:04:12;5.57;;;3.93;;
17714;SDS011;8977;50.902;4.314;2022-09-28T09:06:44;6.87;;;4.43;;
17714;SDS011;8977;50.902;4.314;2022-09-28T09:09:32;6.13;;;4.20;;
17714;SDS011;8977;50.902;4.314;2022-09-28T09:12:11;8.97;;;4.13;;
17714;SDS011;8977;50.902;4.314;2022-09-28T09:17:42;8.07;;;3.73;;
17714;SDS011;8977;50.902;4.314;2022-09-28T09:20:17;6.10;;;3.77;;
17714;SDS011;8977;50.902;4.314;2022-09-28T09:22:59;12.63;;;9.53;;
17714;SDS011;8977;50.902;4.314;2022-09-28T09:25:29;16.83;;;8.93;;
17714;SDS011;8977;50.902;4.314;2022-09-28T09:28:10;4.73;;;4.23;;
17714;SDS011;8977;50.902;4.314;2022-09-28T09:31:03;11.63;;;3.77;;
17714;SDS011;8977;50.902;4.314;2022-09-28T09:33:42;7.80;;;3.70;;
17714;SDS011;8977;50.902;4.314;2022-09-28T09:36:26;5.13;;;3.30;;
17714;SDS011;8977;50.902;4.314;2022-09-28T09:39:15;4.63;;;4.10;;
17714;SDS011;8977;50.902;4.314;2022-09-28T09:41:59;4.90;;;3.00;;
17714;SDS011;8977;50.902;4.314;2022-09-28T09:44:42;6.10;;;3.60;;
17714;SDS011;8977;50.902;4.314;2022-09-28T09:47:27;4.13;;;3.13;;
17714;SDS011;8977;50.902;4.314;2022-09-28T09:49:58;8.77;;;6.23;;
17714;SDS011;8977;50.902;4.314;2022-09-28T09:52:31;8.17;;;4.90;;
17714;SDS011;8977;50.902;4.314;2022-09-28T09:55:01;8.67;;;5.40;;
17714;SDS011;8977;50.902;4.314;2022-09-28T09:57:31;5.77;;;3.27;;
17714;SDS011;8977;50.902;4.314;2022-09-28T10:00:02;3.53;;;2.50;;
17714;SDS011;8977;50.902;4.314;2022-09-28T10:02:30;4.83;;;2.60;;
17714;SDS011;8977;50.902;4.314;2022-09-28T10:05:00;6.10;;;2.30;;
17714;SDS011;8977;50.902;4.314;2022-09-28T10:07:32;3.43;;;1.90;;
17714;SDS011;8977;50.902;4.314;2022-09-28T10:10:09;4.67;;;2.30;;
17714;SDS011;8977;50.902;4.314;2022-09-28T10:12:39;3.27;;;1.80;;
17714;SDS011;8977;50.902;4.314;2022-09-28T10:15:07;2.70;;;1.70;;
17714;SDS011;8977;50.902;4.314;2022-09-28T10:17:40;4.47;;;2.63;;
17714;SDS011;8977;50.902;4.314;2022-09-28T10:20:10;5.00;;;1.83;;
17714;SDS011;8977;50.902;4.314;2022-09-28T10:22:38;3.73;;;1.80;;
17714;SDS011;8977;50.902;4.314;2022-09-28T10:25:06;2.90;;;1.30;;
17714;SDS011;8977;50.902;4.314;2022-09-28T10:27:34;3.73;;;1.77;;
17714;SDS011;8977;50.902;4.314;2022-09-28T10:30:11;4.17;;;1.80;;
17714;SDS011;8977;50.902;4.314;2022-09-28T10:32:42;2.03;;;1.23;;
17714;SDS011;8977;50.902;4.314;2022-09-28T10:35:12;5.13;;;1.40;;
17714;SDS011;8977;50.902;4.314;2022-09-28T10:37:47;3.43;;;1.50;;
17714;SDS011;8977;50.902;4.314;2022-09-28T10:40:25;6.33;;;4.07;;
17714;SDS011;8977;50.902;4.314;2022-09-28T10:43:00;4.13;;;1.50;;
17714;SDS011;8977;50.902;4.314;2022-09-28T10:45:32;3.73;;;1.80;;
17714;SDS011;8977;50.902;4.314;2022-09-28T10:48:02;3.30;;;1.83;;
17714;SDS011;8977;50.902;4.314;2022-09-28T10:50:31;5.50;;;1.87;;
17714;SDS011;8977;50.902;4.314;2022-09-28T10:53:15;10.90;;;5.63;;
17714;SDS011;8977;50.902;4.314;2022-09-28T10:55:55;5.40;;;3.10;;
17714;SDS011;8977;50.902;4.314;2022-09-28T10:58:25;6.60;;;2.47;;
17714;SDS011;8977;50.902;4.314;2022-09-28T11:01:02;5.67;;;3.30;;
17714;SDS011;8977;50.902;4.314;2022-09-28T11:03:33;3.97;;;1.97;;
17714;SDS011;8977;50.902;4.314;2022-09-28T11:06:13;6.00;;;2.30;;
17714;SDS011;8977;50.902;4.314;2022-09-28T11:08:40;4.50;;;1.60;;
17714;SDS011;8977;50.902;4.314;2022-09-28T11:11:10;5.53;;;1.43;;
17714;SDS011;8977;50.902;4.314;2022-09-28T11:13:42;8.90;;;2.57;;
17714;SDS011;8977;50.902;4.314;2022-09-28T11:16:23;9.43;;;2.20;;
17714;SDS011;8977;50.902;4.314;2022-09-28T11:18:53;2.37;;;1.33;;
17714;SDS011;8977;50.902;4.314;2022-09-28T11:21:21;5.43;;;1.73;;
17714;SDS011;8977;50.902;4.314;2022-09-28T11:23:54;4.00;;;1.80;;
17714;SDS011;8977;50.902;4.314;2022-09-28T11:26:33;12.67;;;3.17;;
17714;SDS011;8977;50.902;4.314;2022-09-28T11:29:03;4.80;;;2.23;;
17714;SDS011;8977;50.902;4.314;2022-09-28T11:31:33;17.00;;;3.80;;
17714;SDS011;8977;50.902;4.314;2022-09-28T11:34:05;9.20;;;2.40;;
17714;SDS011;8977;50.902;4.314;2022-09-28T11:36:44;1.70;;;1.50;;
17714;SDS011;8977;50.902;4.314;2022-09-28T11:39:25;2.97;;;1.73;;
17714;SDS011;8977;50.902;4.314;2022-09-28T11:41:59;5.20;;;1.80;;
17714;SDS011;8977;50.902;4.314;2022-09-28T11:44:36;3.77;;;1.90;;
17714;SDS011;8977;50.902;4.314;2022-09-28T11:50:17;5.47;;;2.00;;
17714;SDS011;8977;50.902;4.314;2022-09-28T11:52:53;3.67;;;1.30;;
17714;SDS011;8977;50.902;4.314;2022-09-28T11:55:25;3.00;;;2.00;;
17714;SDS011;8977;50.902;4.314;2022-09-28T11:57:59;4.57;;;2.37;;
17714;SDS011;8977;50.902;4.314;2022-09-28T12:00:32;4.30;;;2.97;;
17714;SDS011;8977;50.902;4.314;2022-09-28T12:03:04;4.90;;;1.87;;
17714;SDS011;8977;50.902;4.314;2022-09-28T12:05:39;2.80;;;1.40;;
17714;SDS011;8977;50.902;4.314;2022-09-28T12:08:12;3.87;;;1.47;;
17714;SDS011;8977;50.902;4.314;2022-09-28T12:10:43;2.20;;;1.30;;
17714;SDS011;8977;50.902;4.314;2022-09-28T12:13:17;1.83;;;1.10;;
17714;SDS011;8977;50.902;4.314;2022-09-28T12:15:49;3.47;;;1.13;;
17714;SDS011;8977;50.902;4.314;2022-09-28T12:18:21;2.73;;;0.73;;
17714;SDS011;8977;50.902;4.314;2022-09-28T12:20:52;2.40;;;1.00;;
17714;SDS011;8977;50.902;4.314;2022-09-28T12:23:27;2.40;;;0.83;;
17714;SDS011;8977;50.902;4.314;2022-09-28T12:25:59;3.07;;;1.33;;
17714;SDS011;8977;50.902;4.314;2022-09-28T12:28:30;7.50;;;4.53;;
17714;SDS011;8977;50.902;4.314;2022-09-28T12:31:07;4.50;;;1.50;;
17714;SDS011;8977;50.902;4.314;2022-09-28T12:33:40;5.23;;;1.40;;
17714;SDS011;8977;50.902;4.314;2022-09-28T12:36:14;3.47;;;1.60;;
17714;SDS011;8977;50.902;4.314;2022-09-28T12:38:58;3.67;;;1.50;;
17714;SDS011;8977;50.902;4.314;2022-09-28T12:41:38;5.13;;;1.77;;
17714;SDS011;8977;50.902;4.314;2022-09-28T12:44:19;2.27;;;1.10;;
17714;SDS011;8977;50.902;4.314;2022-09-28T12:47:02;1.80;;;1.17;;
17714;SDS011;8977;50.902;4.314;2022-09-28T12:49:46;2.33;;;1.07;;
17714;SDS011;8977;50.902;4.314;2022-09-28T12:52:28;1.80;;;1.00;;
17714;SDS011;8977;50.902;4.314;2022-09-28T12:57:55;2.70;;;1.17;;
17714;SDS011;8977;50.902;4.314;2022-09-28T13:00:28;1.87;;;0.80;;
17714;SDS011;8977;50.902;4.314;2022-09-28T13:03:08;1.87;;;0.90;;
17714;SDS011;8977;50.902;4.314;2022-09-28T13:09:08;4.53;;;0.70;;
17714;SDS011;8977;50.902;4.314;2022-09-28T13:14:48;0.90;;;0.80;;
17714;SDS011;8977;50.902;4.314;2022-09-28T13:17:35;1.80;;;0.80;;
17714;SDS011;8977;50.902;4.314;2022-09-28T13:20:12;2.57;;;0.90;;
17714;SDS011;8977;50.902;4.314;2022-09-28T13:22:57;2.27;;;0.80;;
17714;SDS011;8977;50.902;4.314;2022-09-28T13:25:35;2.13;;;0.90;;
17714;SDS011;8977;50.902;4.314;2022-09-28T13:28:06;3.37;;;1.27;;
17714;SDS011;8977;50.902;4.314;2022-09-28T13:30:38;3.27;;;1.10;;
17714;SDS011;8977;50.902;4.314;2022-09-28T13:33:06;1.63;;;0.80;;
17714;SDS011;8977;50.902;4.314;2022-09-28T13:35:41;1.83;;;1.00;;
17714;SDS011;8977;50.902;4.314;2022-09-28T13:38:27;4.70;;;2.70;;
17714;SDS011;8977;50.902;4.314;2022-09-28T13:41:13;3.43;;;1.63;;
17714;SDS011;8977;50.902;4.314;2022-09-28T13:47:03;3.63;;;1.40;;
17714;SDS011;8977;50.902;4.314;2022-09-28T13:49:43;4.77;;;2.87;;
17714;SDS011;8977;50.902;4.314;2022-09-28T13:52:26;5.90;;;2.17;;
17714;SDS011;8977;50.902;4.314;2022-09-28T13:55:08;3.00;;;1.20;;
17714;SDS011;8977;50.902;4.314;2022-09-28T13:57:52;2.43;;;0.97;;
17714;SDS011;8977;50.902;4.314;2022-09-28T14:00:25;3.70;;;1.23;;
17714;SDS011;8977;50.902;4.314;2022-09-28T14:02:56;2.63;;;1.30;;
17714;SDS011;8977;50.902;4.314;2022-09-28T14:05:45;1.97;;;1.20;;
17714;SDS011;8977;50.902;4.314;2022-09-28T14:08:21;1.90;;;0.73;;
17714;SDS011;8977;50.902;4.314;2022-09-28T14:10:53;3.40;;;1.03;;
17714;SDS011;8977;50.902;4.314;2022-09-28T14:16:27;7.13;;;2.00;;
17714;SDS011;8977;50.902;4.314;2022-09-28T14:18:57;4.23;;;1.93;;
17714;SDS011;8977;50.902;4.314;2022-09-28T14:21:37;2.37;;;1.30;;
17714;SDS011;8977;50.902;4.314;2022-09-28T14:24:20;2.47;;;1.50;;
17714;SDS011;8977;50.902;4.314;2022-09-28T14:27:05;3.20;;;1.83;;
17714;SDS011;8977;50.902;4.314;2022-09-28T14:30:04;4.23;;;1.00;;
17714;SDS011;8977;50.902;4.314;2022-09-28T14:32:33;2.93;;;1.10;;
17714;SDS011;8977;50.902;4.314;2022-09-28T14:35:02;6.30;;;1.50;;
17714;SDS011;8977;50.902;4.314;2022-09-28T14:37:32;4.13;;;1.40;;
17714;SDS011;8977;50.902;4.314;2022-09-28T14:40:19;5.37;;;1.40;;
17714;SDS011;8977;50.902;4.314;2022-09-28T14:43:18;3.87;;;1.40;;
17714;SDS011;8977;50.902;4.314;2022-09-28T14:49:02;5.83;;;1.90;;
17714;SDS011;8977;50.902;4.314;2022-09-28T14:54:39;4.47;;;1.37;;
17714;SDS011;8977;50.902;4.314;2022-09-28T14:57:18;3.47;;;1.47;;
17714;SDS011;8977;50.902;4.314;2022-09-28T14:59:50;3.87;;;1.83;;
17714;SDS011;8977;50.902;4.314;2022-09-28T15:02:21;2.30;;;1.90;;
17714;SDS011;8977;50.902;4.314;2022-09-28T15:04:51;3.97;;;1.47;;
17714;SDS011;8977;50.902;4.314;2022-09-28T15:07:20;1.63;;;0.87;;
17714;SDS011;8977;50.902;4.314;2022-09-28T15:09:49;2.57;;;1.27;;
17714;SDS011;8977;50.902;4.314;2022-09-28T15:12:18;2.87;;;1.30;;
17714;SDS011;8977;50.902;4.314;2022-09-28T15:14:48;2.33;;;1.27;;
17714;SDS011;8977;50.902;4.314;2022-09-28T15:17:21;2.17;;;1.00;;
17714;SDS011;8977;50.902;4.314;2022-09-28T15:19:52;2.77;;;1.30;;
17714;SDS011;8977;50.902;4.314;2022-09-28T15:22:43;2.50;;;1.10;;
17714;SDS011;8977;50.902;4.314;2022-09-28T15:25:11;4.10;;;1.23;;
17714;SDS011;8977;50.902;4.314;2022-09-28T15:27:39;2.23;;;1.10;;
17714;SDS011;8977;50.902;4.314;2022-09-28T15:30:17;4.53;;;3.43;;
17714;SDS011;8977;50.902;4.314;2022-09-28T15:32:48;4.10;;;1.60;;
17714;SDS011;8977;50.902;4.314;2022-09-28T15:35:17;2.53;;;1.67;;
17714;SDS011;8977;50.902;4.314;2022-09-28T15:37:45;4.13;;;1.20;;
17714;SDS011;8977;50.902;4.314;2022-09-28T15:40:16;2.40;;;1.23;;
17714;SDS011;8977;50.902;4.314;2022-09-28T15:42:46;3.23;;;1.23;;
17714;SDS011;8977;50.902;4.314;2022-09-28T15:45:20;3.70;;;1.47;;
17714;SDS011;8977;50.902;4.314;2022-09-28T15:47:54;3.20;;;1.00;;
17714;SDS011;8977;50.902;4.314;2022-09-28T15:50:44;2.20;;;1.00;;
17714;SDS011;8977;50.902;4.314;2022-09-28T15:53:34;1.87;;;1.00;;
17714;SDS011;8977;50.902;4.314;2022-09-28T15:56:03;1.73;;;1.10;;
17714;SDS011;8977;50.902;4.314;2022-09-28T15:58:34;4.03;;;1.30;;